sensor_id;sensor_type;location;lat;lon;timestamp;pressure;altitude;pressure_sealevel;temperature;humidity
45991;BME280;31721;41.740;-88.000;2023-04-09T00:02:02;100037.21;;;16.18;20.48
45991;BME280;31721;41.740;-88.000;2023-04-09T00:04:29;100035.39;;;16.16;20.47
45991;BME280;31721;41.740;-88.000;2023-04-09T00:06:57;100036.83;;;16.21;20.88
45991;BME280;31721;41.740;-88.000;2023-04-09T00:09:25;100035.78;;;16.22;21.05
45991;BME280;31721;41.740;-88.000;2023-04-09T00:11:52;100036.30;;;16.15;21.02
45991;BME280;31721;41.740;-88.000;2023-04-09T00:14:20;100036.16;;;16.18;20.90
45991;BME280;31721;41.740;-88.000;2023-04-09T00:16:47;100036.50;;;16.03;21.08
45991;BME280;31721;41.740;-88.000;2023-04-09T00:19:15;100036.86;;;16.02;20.92
45991;BME280;31721;41.740;-88.000;2023-04-09T00:21:43;100036.91;;;15.89;21.07
45991;BME280;31721;41.740;-88.000;2023-04-09T00:24:11;100033.27;;;15.80;21.10
45991;BME280;31721;41.740;-88.000;2023-04-09T00:26:39;100033.55;;;15.75;21.31
45991;BME280;31721;41.740;-88.000;2023-04-09T00:29:07;100032.31;;;15.76;21.39
45991;BME280;31721;41.740;-88.000;2023-04-09T00:31:35;100034.14;;;15.73;21.45
45991;BME280;31721;41.740;-88.000;2023-04-09T00:34:02;100032.69;;;15.59;21.47
45991;BME280;31721;41.740;-88.000;2023-04-09T00:36:31;100032.44;;;15.70;21.67
45991;BME280;31721;41.740;-88.000;2023-04-09T00:38:59;100033.97;;;15.57;21.58
45991;BME280;31721;41.740;-88.000;2023-04-09T00:41:27;100035.17;;;15.63;21.67
45991;BME280;31721;41.740;-88.000;2023-04-09T00:43:55;100034.89;;;15.48;21.90
45991;BME280;31721;41.740;-88.000;2023-04-09T00:46:24;100033.51;;;15.36;21.82
45991;BME280;31721;41.740;-88.000;2023-04-09T00:48:52;100030.91;;;15.45;22.23
45991;BME280;31721;41.740;-88.000;2023-04-09T00:51:20;100032.87;;;15.42;21.88
45991;BME280;31721;41.740;-88.000;2023-04-09T00:53:47;100035.72;;;15.26;21.88
45991;BME280;31721;41.740;-88.000;2023-04-09T00:56:16;100036.79;;;15.34;22.02
45991;BME280;31721;41.740;-88.000;2023-04-09T00:58:45;100042.11;;;15.28;22.11
45991;BME280;31721;41.740;-88.000;2023-04-09T01:01:13;100047.82;;;15.12;22.14
45991;BME280;31721;41.740;-88.000;2023-04-09T01:03:41;100048.53;;;15.16;22.17
45991;BME280;31721;41.740;-88.000;2023-04-09T01:06:14;100050.07;;;15.07;22.52
45991;BME280;31721;41.740;-88.000;2023-04-09T01:08:50;100052.20;;;15.04;22.58
45991;BME280;31721;41.740;-88.000;2023-04-09T01:11:30;100050.80;;;14.97;22.75
45991;BME280;31721;41.740;-88.000;2023-04-09T01:14:07;100046.97;;;14.88;22.91
45991;BME280;31721;41.740;-88.000;2023-04-09T01:16:43;100041.36;;;14.77;23.23
45991;BME280;31721;41.740;-88.000;2023-04-09T01:19:33;100035.17;;;14.74;23.40
45991;BME280;31721;41.740;-88.000;2023-04-09T01:22:05;100033.00;;;14.65;23.48
45991;BME280;31721;41.740;-88.000;2023-04-09T01:24:43;100033.27;;;14.71;23.62
45991;BME280;31721;41.740;-88.000;2023-04-09T01:27:19;100035.26;;;14.67;23.47
45991;BME280;31721;41.740;-88.000;2023-04-09T01:29:50;100037.67;;;14.51;23.44
45991;BME280;31721;41.740;-88.000;2023-04-09T01:32:20;100037.71;;;14.33;24.38
45991;BME280;31721;41.740;-88.000;2023-04-09T01:34:50;100038.25;;;14.50;23.85
45991;BME280;31721;41.740;-88.000;2023-04-09T01:37:19;100040.45;;;14.33;23.68
45991;BME280;31721;41.740;-88.000;2023-04-09T01:39:48;100043.33;;;14.21;23.80
45991;BME280;31721;41.740;-88.000;2023-04-09T01:42:17;100045.97;;;14.21;24.03
45991;BME280;31721;41.740;-88.000;2023-04-09T01:44:46;100048.39;;;14.18;23.90
45991;BME280;31721;41.740;-88.000;2023-04-09T01:47:15;100049.23;;;14.16;24.00
45991;BME280;31721;41.740;-88.000;2023-04-09T01:49:43;100049.32;;;14.15;23.96
45991;BME280;31721;41.740;-88.000;2023-04-09T01:52:12;100058.77;;;14.21;24.23
45991;BME280;31721;41.740;-88.000;2023-04-09T01:54:42;100065.98;;;14.10;24.16
45991;BME280;31721;41.740;-88.000;2023-04-09T01:57:10;100074.43;;;14.12;24.26
45991;BME280;31721;41.740;-88.000;2023-04-09T01:59:38;100080.77;;;14.01;24.35
45991;BME280;31721;41.740;-88.000;2023-04-09T02:02:10;100083.30;;;14.02;24.33
45991;BME280;31721;41.740;-88.000;2023-04-09T02:04:45;100086.04;;;13.99;24.36
45991;BME280;31721;41.740;-88.000;2023-04-09T02:07:21;100090.61;;;14.03;24.37
45991;BME280;31721;41.740;-88.000;2023-04-09T02:09:52;100095.14;;;13.86;24.41
45991;BME280;31721;41.740;-88.000;2023-04-09T02:12:21;100096.32;;;13.82;24.80
45991;BME280;31721;41.740;-88.000;2023-04-09T02:14:51;100097.70;;;13.77;24.70
45991;BME280;31721;41.740;-88.000;2023-04-09T02:17:20;100098.13;;;13.72;24.70
45991;BME280;31721;41.740;-88.000;2023-04-09T02:19:48;100099.92;;;13.66;24.74
45991;BME280;31721;41.740;-88.000;2023-04-09T02:22:17;100099.61;;;13.69;24.92
45991;BME280;31721;41.740;-88.000;2023-04-09T02:24:45;100097.35;;;13.61;25.03
45991;BME280;31721;41.740;-88.000;2023-04-09T02:27:14;100098.86;;;13.61;25.28
45991;BME280;31721;41.740;-88.000;2023-04-09T02:29:42;100101.01;;;13.59;25.30
45991;BME280;31721;41.740;-88.000;2023-04-09T02:32:09;100103.32;;;13.50;25.47
45991;BME280;31721;41.740;-88.000;2023-04-09T02:34:37;100106.79;;;13.30;25.39
45991;BME280;31721;41.740;-88.000;2023-04-09T02:37:06;100110.04;;;13.30;26.06
45991;BME280;31721;41.740;-88.000;2023-04-09T02:39:34;100110.71;;;13.20;25.95
45991;BME280;31721;41.740;-88.000;2023-04-09T02:42:01;100111.28;;;13.09;25.88
45991;BME280;31721;41.740;-88.000;2023-04-09T02:44:29;100112.69;;;12.99;25.89
45991;BME280;31721;41.740;-88.000;2023-04-09T02:46:56;100109.24;;;12.89;26.16
45991;BME280;31721;41.740;-88.000;2023-04-09T02:49:24;100106.51;;;12.82;26.25
45991;BME280;31721;41.740;-88.000;2023-04-09T02:51:52;100107.60;;;12.73;26.48
45991;BME280;31721;41.740;-88.000;2023-04-09T02:54:20;100108.76;;;12.66;26.62
45991;BME280;31721;41.740;-88.000;2023-04-09T02:56:48;100107.56;;;12.56;26.84
45991;BME280;31721;41.740;-88.000;2023-04-09T02:59:16;100105.91;;;12.65;27.09
45991;BME280;31721;41.740;-88.000;2023-04-09T03:01:43;100109.26;;;12.39;26.94
45991;BME280;31721;41.740;-88.000;2023-04-09T03:04:11;100108.18;;;12.49;27.23
45991;BME280;31721;41.740;-88.000;2023-04-09T03:06:39;100108.90;;;12.35;27.46
45991;BME280;31721;41.740;-88.000;2023-04-09T03:09:07;100112.43;;;12.35;27.58
45991;BME280;31721;41.740;-88.000;2023-04-09T03:11:35;100106.56;;;12.29;27.67
45991;BME280;31721;41.740;-88.000;2023-04-09T03:14:03;100105.87;;;12.24;27.75
45991;BME280;31721;41.740;-88.000;2023-04-09T03:16:31;100105.79;;;12.17;27.80
45991;BME280;31721;41.740;-88.000;2023-04-09T03:18:58;100104.63;;;12.09;28.08
45991;BME280;31721;41.740;-88.000;2023-04-09T03:21:25;100101.47;;;12.05;28.08
45991;BME280;31721;41.740;-88.000;2023-04-09T03:23:53;100099.84;;;11.98;28.02
45991;BME280;31721;41.740;-88.000;2023-04-09T03:26:21;100099.68;;;11.90;28.32
45991;BME280;31721;41.740;-88.000;2023-04-09T03:28:49;100101.77;;;11.93;28.54
45991;BME280;31721;41.740;-88.000;2023-04-09T03:31:16;100102.53;;;11.80;28.60
45991;BME280;31721;41.740;-88.000;2023-04-09T03:33:44;100102.56;;;11.73;28.56
45991;BME280;31721;41.740;-88.000;2023-04-09T03:36:12;100098.52;;;11.74;28.51
45991;BME280;31721;41.740;-88.000;2023-04-09T03:38:39;100095.18;;;11.62;28.69
45991;BME280;31721;41.740;-88.000;2023-04-09T03:41:07;100092.24;;;11.57;28.84
45991;BME280;31721;41.740;-88.000;2023-04-09T03:43:35;100091.19;;;11.60;29.09
45991;BME280;31721;41.740;-88.000;2023-04-09T03:46:11;100092.88;;;11.47;29.10
45991;BME280;31721;41.740;-88.000;2023-04-09T03:48:39;100091.31;;;11.49;29.18
45991;BME280;31721;41.740;-88.000;2023-04-09T03:51:10;100089.20;;;11.37;29.10
45991;BME280;31721;41.740;-88.000;2023-04-09T03:53:39;100094.10;;;11.47;29.18
45991;BME280;31721;41.740;-88.000;2023-04-09T03:56:07;100093.62;;;11.32;29.29
45991;BME280;31721;41.740;-88.000;2023-04-09T03:58:35;100093.48;;;11.16;29.59
45991;BME280;31721;41.740;-88.000;2023-04-09T04:01:04;100094.00;;;11.20;29.89
45991;BME280;31721;41.740;-88.000;2023-04-09T04:03:31;100094.11;;;11.16;29.89
45991;BME280;31721;41.740;-88.000;2023-04-09T04:06:00;100089.64;;;11.09;29.95
45991;BME280;31721;41.740;-88.000;2023-04-09T04:08:28;100089.10;;;11.02;29.98
45991;BME280;31721;41.740;-88.000;2023-04-09T04:11:02;100090.56;;;10.94;29.97
45991;BME280;31721;41.740;-88.000;2023-04-09T04:13:30;100090.87;;;10.96;30.46
45991;BME280;31721;41.740;-88.000;2023-04-09T04:15:58;100089.40;;;10.91;30.32
45991;BME280;31721;41.740;-88.000;2023-04-09T04:18:26;100087.97;;;10.86;30.55
45991;BME280;31721;41.740;-88.000;2023-04-09T04:20:54;100091.93;;;10.71;30.61
45991;BME280;31721;41.740;-88.000;2023-04-09T04:23:21;100092.91;;;10.74;30.72
45991;BME280;31721;41.740;-88.000;2023-04-09T04:25:48;100094.07;;;10.68;30.70
45991;BME280;31721;41.740;-88.000;2023-04-09T04:28:16;100095.90;;;10.64;30.66
45991;BME280;31721;41.740;-88.000;2023-04-09T04:30:43;100092.47;;;10.59;31.00
45991;BME280;31721;41.740;-88.000;2023-04-09T04:33:12;100091.14;;;10.53;30.95
45991;BME280;31721;41.740;-88.000;2023-04-09T04:35:40;100088.87;;;10.45;30.88
45991;BME280;31721;41.740;-88.000;2023-04-09T04:38:08;100087.26;;;10.40;31.14
45991;BME280;31721;41.740;-88.000;2023-04-09T04:40:36;100089.97;;;10.36;31.33
45991;BME280;31721;41.740;-88.000;2023-04-09T04:43:03;100095.60;;;10.30;31.23
45991;BME280;31721;41.740;-88.000;2023-04-09T04:45:31;100098.75;;;10.32;31.54
45991;BME280;31721;41.740;-88.000;2023-04-09T04:47:59;100097.77;;;10.18;31.43
45991;BME280;31721;41.740;-88.000;2023-04-09T04:50:27;100099.67;;;10.15;31.46
45991;BME280;31721;41.740;-88.000;2023-04-09T04:52:55;100098.25;;;10.10;31.57
45991;BME280;31721;41.740;-88.000;2023-04-09T04:55:23;100101.20;;;10.15;31.95
45991;BME280;31721;41.740;-88.000;2023-04-09T04:57:51;100106.09;;;10.12;31.73
45991;BME280;31721;41.740;-88.000;2023-04-09T05:00:19;100110.46;;;10.14;32.03
45991;BME280;31721;41.740;-88.000;2023-04-09T05:02:47;100112.08;;;9.96;31.97
45991;BME280;31721;41.740;-88.000;2023-04-09T05:05:15;100113.66;;;9.93;32.18
45991;BME280;31721;41.740;-88.000;2023-04-09T05:07:42;100111.85;;;10.04;32.27
45991;BME280;31721;41.740;-88.000;2023-04-09T05:10:10;100115.20;;;9.94;32.33
45991;BME280;31721;41.740;-88.000;2023-04-09T05:12:38;100115.98;;;9.99;32.39
45991;BME280;31721;41.740;-88.000;2023-04-09T05:15:06;100115.68;;;9.97;32.26
45991;BME280;31721;41.740;-88.000;2023-04-09T05:17:34;100118.59;;;9.86;32.36
45991;BME280;31721;41.740;-88.000;2023-04-09T05:20:02;100119.43;;;9.91;32.44
45991;BME280;31721;41.740;-88.000;2023-04-09T05:22:30;100115.28;;;9.74;32.54
45991;BME280;31721;41.740;-88.000;2023-04-09T05:24:58;100118.29;;;9.72;32.61
45991;BME280;31721;41.740;-88.000;2023-04-09T05:27:25;100117.46;;;9.77;32.68
45991;BME280;31721;41.740;-88.000;2023-04-09T05:29:53;100117.67;;;9.81;32.79
45991;BME280;31721;41.740;-88.000;2023-04-09T05:32:21;100116.41;;;9.66;32.67
45991;BME280;31721;41.740;-88.000;2023-04-09T05:34:49;100116.69;;;9.64;32.78
45991;BME280;31721;41.740;-88.000;2023-04-09T05:37:16;100117.65;;;9.68;32.88
45991;BME280;31721;41.740;-88.000;2023-04-09T05:39:44;100119.47;;;9.54;32.78
45991;BME280;31721;41.740;-88.000;2023-04-09T05:42:12;100119.57;;;9.60;33.21
45991;BME280;31721;41.740;-88.000;2023-04-09T05:44:40;100124.39;;;9.56;33.19
45991;BME280;31721;41.740;-88.000;2023-04-09T05:47:07;100129.23;;;9.51;33.14
45991;BME280;31721;41.740;-88.000;2023-04-09T05:49:35;100129.80;;;9.41;33.11
45991;BME280;31721;41.740;-88.000;2023-04-09T05:52:03;100128.47;;;9.44;33.25
45991;BME280;31721;41.740;-88.000;2023-04-09T05:54:31;100128.36;;;9.25;33.22
45991;BME280;31721;41.740;-88.000;2023-04-09T05:56:59;100131.42;;;9.35;33.46
45991;BME280;31721;41.740;-88.000;2023-04-09T05:59:26;100134.80;;;9.32;33.76
45991;BME280;31721;41.740;-88.000;2023-04-09T06:01:54;100136.74;;;9.29;33.75
45991;BME280;31721;41.740;-88.000;2023-04-09T06:04:22;100138.84;;;9.23;33.73
45991;BME280;31721;41.740;-88.000;2023-04-09T06:06:50;100143.55;;;9.20;33.88
45991;BME280;31721;41.740;-88.000;2023-04-09T06:09:18;100141.25;;;9.13;33.75
45991;BME280;31721;41.740;-88.000;2023-04-09T06:11:46;100145.18;;;9.09;34.19
45991;BME280;31721;41.740;-88.000;2023-04-09T06:14:13;100147.71;;;9.18;34.32
45991;BME280;31721;41.740;-88.000;2023-04-09T06:16:41;100150.91;;;9.14;34.30
45991;BME280;31721;41.740;-88.000;2023-04-09T06:19:09;100156.73;;;9.11;34.22
45991;BME280;31721;41.740;-88.000;2023-04-09T06:21:37;100156.35;;;9.07;34.47
45991;BME280;31721;41.740;-88.000;2023-04-09T06:24:05;100156.92;;;9.11;34.55
45991;BME280;31721;41.740;-88.000;2023-04-09T06:26:33;100157.92;;;8.93;34.62
45991;BME280;31721;41.740;-88.000;2023-04-09T06:29:00;100153.59;;;8.97;34.62
45991;BME280;31721;41.740;-88.000;2023-04-09T06:31:28;100154.00;;;8.85;34.64
45991;BME280;31721;41.740;-88.000;2023-04-09T06:33:55;100153.96;;;8.80;34.66
45991;BME280;31721;41.740;-88.000;2023-04-09T06:36:24;100151.26;;;8.85;34.87
45991;BME280;31721;41.740;-88.000;2023-04-09T06:38:51;100153.97;;;8.75;35.12
45991;BME280;31721;41.740;-88.000;2023-04-09T06:41:20;100154.97;;;8.84;34.99
45991;BME280;31721;41.740;-88.000;2023-04-09T06:43:48;100159.26;;;8.80;35.18
45991;BME280;31721;41.740;-88.000;2023-04-09T06:46:16;100164.06;;;8.76;35.12
45991;BME280;31721;41.740;-88.000;2023-04-09T06:48:44;100167.44;;;8.70;35.08
45991;BME280;31721;41.740;-88.000;2023-04-09T06:51:11;100168.28;;;8.63;35.27
45991;BME280;31721;41.740;-88.000;2023-04-09T06:53:39;100170.96;;;8.55;35.34
45991;BME280;31721;41.740;-88.000;2023-04-09T06:56:07;100172.25;;;8.47;35.15
45991;BME280;31721;41.740;-88.000;2023-04-09T06:58:35;100174.90;;;8.32;35.26
45991;BME280;31721;41.740;-88.000;2023-04-09T07:01:03;100176.72;;;8.35;35.41
45991;BME280;31721;41.740;-88.000;2023-04-09T07:03:31;100178.56;;;8.28;35.63
45991;BME280;31721;41.740;-88.000;2023-04-09T07:05:58;100178.91;;;8.20;35.64
45991;BME280;31721;41.740;-88.000;2023-04-09T07:08:26;100181.04;;;8.17;35.86
45991;BME280;31721;41.740;-88.000;2023-04-09T07:10:54;100179.40;;;8.14;36.13
45991;BME280;31721;41.740;-88.000;2023-04-09T07:13:21;100178.71;;;8.07;35.83
45991;BME280;31721;41.740;-88.000;2023-04-09T07:15:49;100179.13;;;8.16;36.17
45991;BME280;31721;41.740;-88.000;2023-04-09T07:18:17;100181.88;;;8.05;36.28
45991;BME280;31721;41.740;-88.000;2023-04-09T07:20:45;100180.60;;;8.11;36.31
45991;BME280;31721;41.740;-88.000;2023-04-09T07:23:12;100180.51;;;8.04;36.30
45991;BME280;31721;41.740;-88.000;2023-04-09T07:25:40;100181.18;;;7.91;36.36
45991;BME280;31721;41.740;-88.000;2023-04-09T07:28:08;100179.61;;;7.83;36.42
45991;BME280;31721;41.740;-88.000;2023-04-09T07:30:35;100180.41;;;7.80;36.55
45991;BME280;31721;41.740;-88.000;2023-04-09T07:33:03;100181.08;;;7.81;36.73
45991;BME280;31721;41.740;-88.000;2023-04-09T07:35:30;100181.89;;;7.80;36.76
45991;BME280;31721;41.740;-88.000;2023-04-09T07:37:58;100183.50;;;7.86;36.79
45991;BME280;31721;41.740;-88.000;2023-04-09T07:40:26;100185.06;;;7.85;36.83
45991;BME280;31721;41.740;-88.000;2023-04-09T07:42:54;100190.38;;;7.91;37.07
45991;BME280;31721;41.740;-88.000;2023-04-09T07:45:22;100190.20;;;7.84;37.33
45991;BME280;31721;41.740;-88.000;2023-04-09T07:47:49;100191.18;;;7.81;37.30
45991;BME280;31721;41.740;-88.000;2023-04-09T07:50:17;100189.29;;;7.77;37.22
45991;BME280;31721;41.740;-88.000;2023-04-09T07:52:45;100189.17;;;7.78;37.25
45991;BME280;31721;41.740;-88.000;2023-04-09T07:55:12;100188.69;;;7.78;37.93
45991;BME280;31721;41.740;-88.000;2023-04-09T07:57:40;100184.88;;;7.65;37.82
45991;BME280;31721;41.740;-88.000;2023-04-09T08:00:09;100184.71;;;7.54;37.45
45991;BME280;31721;41.740;-88.000;2023-04-09T08:02:37;100182.85;;;7.47;37.48
45991;BME280;31721;41.740;-88.000;2023-04-09T08:05:06;100186.50;;;7.50;37.51
45991;BME280;31721;41.740;-88.000;2023-04-09T08:07:34;100190.09;;;7.30;37.33
45991;BME280;31721;41.740;-88.000;2023-04-09T08:10:02;100191.01;;;7.31;37.50
45991;BME280;31721;41.740;-88.000;2023-04-09T08:12:30;100190.64;;;7.32;37.80
45991;BME280;31721;41.740;-88.000;2023-04-09T08:14:57;100190.65;;;7.29;37.96
45991;BME280;31721;41.740;-88.000;2023-04-09T08:17:25;100192.87;;;7.27;37.99
45991;BME280;31721;41.740;-88.000;2023-04-09T08:19:53;100194.06;;;7.30;38.11
45991;BME280;31721;41.740;-88.000;2023-04-09T08:22:20;100194.63;;;7.11;38.22
45991;BME280;31721;41.740;-88.000;2023-04-09T08:24:50;100194.78;;;7.14;38.31
45991;BME280;31721;41.740;-88.000;2023-04-09T08:27:18;100194.95;;;7.11;38.40
45991;BME280;31721;41.740;-88.000;2023-04-09T08:29:46;100197.96;;;7.16;38.44
45991;BME280;31721;41.740;-88.000;2023-04-09T08:32:14;100199.73;;;7.09;38.65
45991;BME280;31721;41.740;-88.000;2023-04-09T08:34:41;100201.34;;;7.10;38.85
45991;BME280;31721;41.740;-88.000;2023-04-09T08:37:09;100204.51;;;7.06;38.82
45991;BME280;31721;41.740;-88.000;2023-04-09T08:39:36;100207.87;;;6.97;39.07
45991;BME280;31721;41.740;-88.000;2023-04-09T08:42:06;100209.38;;;6.99;38.97
45991;BME280;31721;41.740;-88.000;2023-04-09T08:44:34;100212.94;;;7.02;39.06
45991;BME280;31721;41.740;-88.000;2023-04-09T08:47:07;100214.98;;;6.82;38.82
45991;BME280;31721;41.740;-88.000;2023-04-09T08:49:35;100216.77;;;6.85;39.04
45991;BME280;31721;41.740;-88.000;2023-04-09T08:52:02;100216.70;;;6.87;39.58
45991;BME280;31721;41.740;-88.000;2023-04-09T08:54:30;100218.92;;;6.77;39.69
45991;BME280;31721;41.740;-88.000;2023-04-09T08:56:58;100219.59;;;6.76;39.74
45991;BME280;31721;41.740;-88.000;2023-04-09T08:59:26;100218.84;;;6.80;39.58
45991;BME280;31721;41.740;-88.000;2023-04-09T09:02:06;100223.99;;;6.79;39.72
45991;BME280;31721;41.740;-88.000;2023-04-09T09:04:43;100231.33;;;6.67;39.57
45991;BME280;31721;41.740;-88.000;2023-04-09T09:07:12;100235.07;;;6.67;39.55
45991;BME280;31721;41.740;-88.000;2023-04-09T09:09:56;100235.08;;;6.64;39.75
45991;BME280;31721;41.740;-88.000;2023-04-09T09:12:33;100236.27;;;6.65;39.62
45991;BME280;31721;41.740;-88.000;2023-04-09T09:15:03;100236.64;;;6.69;39.83
45991;BME280;31721;41.740;-88.000;2023-04-09T09:17:33;100237.37;;;6.61;39.97
45991;BME280;31721;41.740;-88.000;2023-04-09T09:20:18;100240.75;;;6.67;39.84
45991;BME280;31721;41.740;-88.000;2023-04-09T09:22:49;100242.79;;;6.74;39.94
45991;BME280;31721;41.740;-88.000;2023-04-09T09:25:18;100243.62;;;6.56;39.91
45991;BME280;31721;41.740;-88.000;2023-04-09T09:27:46;100241.29;;;6.41;40.06
45991;BME280;31721;41.740;-88.000;2023-04-09T09:30:22;100244.71;;;6.44;40.32
45991;BME280;31721;41.740;-88.000;2023-04-09T09:32:52;100243.98;;;6.39;40.22
45991;BME280;31721;41.740;-88.000;2023-04-09T09:35:19;100248.64;;;6.39;40.37
45991;BME280;31721;41.740;-88.000;2023-04-09T09:37:48;100248.21;;;6.38;40.26
45991;BME280;31721;41.740;-88.000;2023-04-09T09:40:26;100247.03;;;6.28;40.21
45991;BME280;31721;41.740;-88.000;2023-04-09T09:42:55;100247.74;;;6.26;40.46
45991;BME280;31721;41.740;-88.000;2023-04-09T09:45:23;100247.13;;;6.33;40.55
45991;BME280;31721;41.740;-88.000;2023-04-09T09:47:52;100249.40;;;6.26;40.64
45991;BME280;31721;41.740;-88.000;2023-04-09T09:50:22;100246.19;;;6.29;40.56
45991;BME280;31721;41.740;-88.000;2023-04-09T09:52:57;100249.44;;;6.27;40.47
45991;BME280;31721;41.740;-88.000;2023-04-09T09:55:27;100253.12;;;6.20;40.53
45991;BME280;31721;41.740;-88.000;2023-04-09T09:57:58;100256.21;;;6.27;40.58
45991;BME280;31721;41.740;-88.000;2023-04-09T10:00:29;100253.77;;;6.16;40.52
45991;BME280;31721;41.740;-88.000;2023-04-09T10:03:04;100260.20;;;6.22;40.47
45991;BME280;31721;41.740;-88.000;2023-04-09T10:05:35;100261.80;;;6.14;40.58
45991;BME280;31721;41.740;-88.000;2023-04-09T10:08:04;100265.25;;;6.08;40.66
45991;BME280;31721;41.740;-88.000;2023-04-09T10:10:33;100269.00;;;6.14;40.58
45991;BME280;31721;41.740;-88.000;2023-04-09T10:13:02;100272.87;;;6.21;40.72
45991;BME280;31721;41.740;-88.000;2023-04-09T10:15:32;100275.47;;;6.20;40.75
45991;BME280;31721;41.740;-88.000;2023-04-09T10:18:00;100281.95;;;6.19;40.62
45991;BME280;31721;41.740;-88.000;2023-04-09T10:20:33;100285.07;;;6.12;40.79
45991;BME280;31721;41.740;-88.000;2023-04-09T10:23:08;100285.32;;;6.08;40.96
45991;BME280;31721;41.740;-88.000;2023-04-09T10:25:37;100288.21;;;6.04;40.97
45991;BME280;31721;41.740;-88.000;2023-04-09T10:28:17;100292.47;;;6.07;40.97
45991;BME280;31721;41.740;-88.000;2023-04-09T10:30:45;100291.97;;;6.02;40.90
45991;BME280;31721;41.740;-88.000;2023-04-09T10:33:14;100296.80;;;5.94;41.12
45991;BME280;31721;41.740;-88.000;2023-04-09T10:35:42;100299.67;;;6.01;41.06
45991;BME280;31721;41.740;-88.000;2023-04-09T10:38:14;100303.59;;;5.99;41.11
45991;BME280;31721;41.740;-88.000;2023-04-09T10:40:46;100303.91;;;5.89;41.13
45991;BME280;31721;41.740;-88.000;2023-04-09T10:43:14;100306.81;;;5.88;41.32
45991;BME280;31721;41.740;-88.000;2023-04-09T10:45:45;100310.05;;;5.76;41.23
45991;BME280;31721;41.740;-88.000;2023-04-09T10:48:19;100313.68;;;5.83;41.32
45991;BME280;31721;41.740;-88.000;2023-04-09T10:50:50;100316.68;;;5.81;41.54
45991;BME280;31721;41.740;-88.000;2023-04-09T10:53:23;100319.68;;;5.79;41.50
45991;BME280;31721;41.740;-88.000;2023-04-09T10:55:52;100320.80;;;5.81;41.59
45991;BME280;31721;41.740;-88.000;2023-04-09T10:58:20;100322.06;;;5.78;41.67
45991;BME280;31721;41.740;-88.000;2023-04-09T11:00:49;100324.99;;;5.68;41.71
45991;BME280;31721;41.740;-88.000;2023-04-09T11:03:21;100328.88;;;5.67;41.68
45991;BME280;31721;41.740;-88.000;2023-04-09T11:05:52;100330.85;;;5.78;41.64
45991;BME280;31721;41.740;-88.000;2023-04-09T11:08:20;100334.54;;;5.78;41.73
45991;BME280;31721;41.740;-88.000;2023-04-09T11:10:48;100338.74;;;5.77;41.66
45991;BME280;31721;41.740;-88.000;2023-04-09T11:13:17;100342.74;;;5.69;41.74
45991;BME280;31721;41.740;-88.000;2023-04-09T11:15:45;100346.55;;;5.80;41.77
45991;BME280;31721;41.740;-88.000;2023-04-09T11:18:14;100345.58;;;5.82;41.82
45991;BME280;31721;41.740;-88.000;2023-04-09T11:20:42;100352.90;;;5.85;41.85
45991;BME280;31721;41.740;-88.000;2023-04-09T11:23:12;100353.44;;;5.86;41.98
45991;BME280;31721;41.740;-88.000;2023-04-09T11:25:39;100354.09;;;5.78;41.92
45991;BME280;31721;41.740;-88.000;2023-04-09T11:28:07;100353.00;;;5.88;41.86
45991;BME280;31721;41.740;-88.000;2023-04-09T11:30:35;100355.71;;;5.73;41.63
45991;BME280;31721;41.740;-88.000;2023-04-09T11:33:03;100354.40;;;5.90;41.61
45991;BME280;31721;41.740;-88.000;2023-04-09T11:35:33;100353.01;;;5.86;41.54
45991;BME280;31721;41.740;-88.000;2023-04-09T11:38:06;100356.07;;;5.99;41.72
45991;BME280;31721;41.740;-88.000;2023-04-09T11:40:34;100358.52;;;6.05;41.88
45991;BME280;31721;41.740;-88.000;2023-04-09T11:43:02;100362.19;;;5.96;41.63
45991;BME280;31721;41.740;-88.000;2023-04-09T11:45:31;100363.51;;;6.04;41.60
45991;BME280;31721;41.740;-88.000;2023-04-09T11:48:01;100366.19;;;6.08;41.63
45991;BME280;31721;41.740;-88.000;2023-04-09T11:50:29;100366.22;;;6.00;41.41
45991;BME280;31721;41.740;-88.000;2023-04-09T11:52:57;100369.89;;;6.10;41.54
45991;BME280;31721;41.740;-88.000;2023-04-09T11:55:27;100370.26;;;6.05;41.55
45991;BME280;31721;41.740;-88.000;2023-04-09T11:57:57;100374.33;;;6.07;41.52
45991;BME280;31721;41.740;-88.000;2023-04-09T12:00:26;100379.22;;;6.11;41.56
45991;BME280;31721;41.740;-88.000;2023-04-09T12:03:03;100383.28;;;6.17;41.54
45991;BME280;31721;41.740;-88.000;2023-04-09T12:05:32;100385.81;;;6.20;41.83
45991;BME280;31721;41.740;-88.000;2023-04-09T12:08:01;100391.84;;;6.35;41.70
45991;BME280;31721;41.740;-88.000;2023-04-09T12:10:30;100391.81;;;6.36;41.55
45991;BME280;31721;41.740;-88.000;2023-04-09T12:13:03;100395.41;;;6.51;41.49
45991;BME280;31721;41.740;-88.000;2023-04-09T12:15:33;100397.30;;;6.54;41.50
45991;BME280;31721;41.740;-88.000;2023-04-09T12:18:02;100403.43;;;6.67;41.57
45991;BME280;31721;41.740;-88.000;2023-04-09T12:20:33;100409.09;;;6.78;41.74
45991;BME280;31721;41.740;-88.000;2023-04-09T12:23:02;100413.51;;;6.85;41.74
45991;BME280;31721;41.740;-88.000;2023-04-09T12:25:30;100416.59;;;7.01;41.69
45991;BME280;31721;41.740;-88.000;2023-04-09T12:27:58;100416.97;;;7.09;41.60
45991;BME280;31721;41.740;-88.000;2023-04-09T12:30:26;100418.61;;;7.22;41.55
45991;BME280;31721;41.740;-88.000;2023-04-09T12:32:54;100421.41;;;7.36;41.26
45991;BME280;31721;41.740;-88.000;2023-04-09T12:35:22;100421.14;;;7.50;41.23
45991;BME280;31721;41.740;-88.000;2023-04-09T12:37:51;100424.80;;;7.65;41.09
45991;BME280;31721;41.740;-88.000;2023-04-09T12:40:20;100430.49;;;7.81;41.02
45991;BME280;31721;41.740;-88.000;2023-04-09T12:42:48;100434.03;;;7.91;40.97
45991;BME280;31721;41.740;-88.000;2023-04-09T12:45:18;100439.93;;;8.10;40.90